< < Back
Terminal Aerodrome Forecast


Current Version              Previous Versions:   1  2  3  4  5  6  7  8  9  

Terminal Aerodrome Forecast

759
FTUS42 KFFC 140805 AAA
TAFAHN
TAF AMD
KAHN 140805Z 1408/1506 06005KT P6SM BKN090
     FM141300 08007KT P6SM BKN080
     FM142300 09006KT P6SM BKN060
     FM150400 08007KT P6SM BKN035=

Latest METAR

578
SAUS70 KWBC 141200 RRA
MTRAHN
METAR KAHN 141151Z AUTO 08008KT 10SM SCT090 M03/M13 A3041 RMK AO2 SLP305
T10281133 11017 21039 53010


USA.gov is the U.S. government's official web portal to all federal, state and local government web resources and services.